sensor_id;sensor_type;location;lat;lon;timestamp;P1;durP1;ratioP1;P2;durP2;ratioP2
12818;SDS011;6474;53.474;9.894;2023-03-01T00:00:03;5.87;;;1.93;;
12818;SDS011;6474;53.474;9.894;2023-03-01T00:02:33;3.03;;;2.43;;
12818;SDS011;6474;53.474;9.894;2023-03-01T00:05:01;5.13;;;2.70;;
12818;SDS011;6474;53.474;9.894;2023-03-01T00:07:35;1.70;;;1.30;;
12818;SDS011;6474;53.474;9.894;2023-03-01T00:10:04;1.43;;;1.37;;
12818;SDS011;6474;53.474;9.894;2023-03-01T00:12:32;4.30;;;2.93;;
12818;SDS011;6474;53.474;9.894;2023-03-01T00:15:00;1.17;;;1.17;;
12818;SDS011;6474;53.474;9.894;2023-03-01T00:17:29;0.80;;;0.63;;
12818;SDS011;6474;53.474;9.894;2023-03-01T00:19:57;1.23;;;1.10;;
12818;SDS011;6474;53.474;9.894;2023-03-01T00:22:26;1.90;;;1.17;;
12818;SDS011;6474;53.474;9.894;2023-03-01T00:24:55;1.60;;;1.00;;
12818;SDS011;6474;53.474;9.894;2023-03-01T00:27:23;0.97;;;0.97;;
12818;SDS011;6474;53.474;9.894;2023-03-01T00:29:51;1.03;;;1.03;;
12818;SDS011;6474;53.474;9.894;2023-03-01T00:32:20;0.50;;;0.50;;
12818;SDS011;6474;53.474;9.894;2023-03-01T00:34:49;0.50;;;0.50;;
12818;SDS011;6474;53.474;9.894;2023-03-01T00:37:22;0.60;;;0.60;;
12818;SDS011;6474;53.474;9.894;2023-03-01T00:39:50;0.90;;;0.90;;
12818;SDS011;6474;53.474;9.894;2023-03-01T00:42:18;0.93;;;0.93;;
12818;SDS011;6474;53.474;9.894;2023-03-01T00:44:46;1.80;;;0.80;;
12818;SDS011;6474;53.474;9.894;2023-03-01T00:47:14;0.53;;;0.53;;
12818;SDS011;6474;53.474;9.894;2023-03-01T00:49:43;1.13;;;0.77;;
12818;SDS011;6474;53.474;9.894;2023-03-01T00:52:12;0.97;;;0.97;;
12818;SDS011;6474;53.474;9.894;2023-03-01T00:54:40;4.53;;;0.73;;
12818;SDS011;6474;53.474;9.894;2023-03-01T00:57:08;0.57;;;0.57;;
12818;SDS011;6474;53.474;9.894;2023-03-01T00:59:36;0.73;;;0.73;;
12818;SDS011;6474;53.474;9.894;2023-03-01T01:02:03;1.23;;;0.60;;
12818;SDS011;6474;53.474;9.894;2023-03-01T01:04:31;1.70;;;0.63;;
12818;SDS011;6474;53.474;9.894;2023-03-01T01:06:59;0.43;;;0.43;;
12818;SDS011;6474;53.474;9.894;2023-03-01T01:09:28;0.67;;;0.57;;
12818;SDS011;6474;53.474;9.894;2023-03-01T01:11:56;0.73;;;0.73;;
12818;SDS011;6474;53.474;9.894;2023-03-01T01:14:24;0.97;;;0.97;;
12818;SDS011;6474;53.474;9.894;2023-03-01T01:16:52;1.03;;;1.03;;
12818;SDS011;6474;53.474;9.894;2023-03-01T01:19:20;0.50;;;0.50;;
12818;SDS011;6474;53.474;9.894;2023-03-01T01:21:49;0.77;;;0.77;;
12818;SDS011;6474;53.474;9.894;2023-03-01T01:24:18;0.43;;;0.43;;
12818;SDS011;6474;53.474;9.894;2023-03-01T01:26:47;2.30;;;0.83;;
12818;SDS011;6474;53.474;9.894;2023-03-01T01:29:15;0.77;;;0.77;;
12818;SDS011;6474;53.474;9.894;2023-03-01T01:31:44;0.33;;;0.33;;
12818;SDS011;6474;53.474;9.894;2023-03-01T01:34:13;1.77;;;1.40;;
12818;SDS011;6474;53.474;9.894;2023-03-01T01:36:42;0.70;;;0.70;;
12818;SDS011;6474;53.474;9.894;2023-03-01T01:39:11;1.10;;;1.10;;
12818;SDS011;6474;53.474;9.894;2023-03-01T01:41:41;0.30;;;0.30;;
12818;SDS011;6474;53.474;9.894;2023-03-01T01:44:13;2.53;;;1.30;;
12818;SDS011;6474;53.474;9.894;2023-03-01T01:46:44;0.67;;;0.67;;
12818;SDS011;6474;53.474;9.894;2023-03-01T01:49:17;1.17;;;1.07;;
12818;SDS011;6474;53.474;9.894;2023-03-01T01:51:51;1.37;;;1.37;;
12818;SDS011;6474;53.474;9.894;2023-03-01T01:54:25;1.40;;;1.30;;
12818;SDS011;6474;53.474;9.894;2023-03-01T01:56:57;1.10;;;1.10;;
12818;SDS011;6474;53.474;9.894;2023-03-01T01:59:32;1.10;;;1.10;;
12818;SDS011;6474;53.474;9.894;2023-03-01T02:02:02;0.67;;;0.60;;
12818;SDS011;6474;53.474;9.894;2023-03-01T02:04:31;0.93;;;0.93;;
12818;SDS011;6474;53.474;9.894;2023-03-01T02:07:01;1.03;;;1.03;;
12818;SDS011;6474;53.474;9.894;2023-03-01T02:09:32;2.50;;;1.40;;
12818;SDS011;6474;53.474;9.894;2023-03-01T02:12:01;0.53;;;0.53;;
12818;SDS011;6474;53.474;9.894;2023-03-01T02:14:31;0.60;;;0.60;;
12818;SDS011;6474;53.474;9.894;2023-03-01T02:17:00;1.30;;;0.63;;
12818;SDS011;6474;53.474;9.894;2023-03-01T02:19:31;0.43;;;0.43;;
12818;SDS011;6474;53.474;9.894;2023-03-01T02:22:12;0.27;;;0.27;;
12818;SDS011;6474;53.474;9.894;2023-03-01T02:24:52;0.43;;;0.43;;
12818;SDS011;6474;53.474;9.894;2023-03-01T02:27:38;1.07;;;0.63;;
12818;SDS011;6474;53.474;9.894;2023-03-01T02:30:12;0.73;;;0.73;;
12818;SDS011;6474;53.474;9.894;2023-03-01T02:32:41;0.53;;;0.53;;
12818;SDS011;6474;53.474;9.894;2023-03-01T02:35:09;0.30;;;0.30;;
12818;SDS011;6474;53.474;9.894;2023-03-01T02:37:39;0.40;;;0.40;;
12818;SDS011;6474;53.474;9.894;2023-03-01T02:40:10;0.40;;;0.40;;
12818;SDS011;6474;53.474;9.894;2023-03-01T02:42:45;0.37;;;0.37;;
12818;SDS011;6474;53.474;9.894;2023-03-01T02:45:19;0.40;;;0.40;;
12818;SDS011;6474;53.474;9.894;2023-03-01T02:47:47;0.37;;;0.37;;
12818;SDS011;6474;53.474;9.894;2023-03-01T02:50:18;0.40;;;0.40;;
12818;SDS011;6474;53.474;9.894;2023-03-01T02:53:09;0.77;;;0.57;;
12818;SDS011;6474;53.474;9.894;2023-03-01T02:55:41;0.43;;;0.40;;
12818;SDS011;6474;53.474;9.894;2023-03-01T02:58:10;1.07;;;0.70;;
12818;SDS011;6474;53.474;9.894;2023-03-01T03:00:40;3.40;;;0.50;;
12818;SDS011;6474;53.474;9.894;2023-03-01T03:03:12;0.30;;;0.30;;
12818;SDS011;6474;53.474;9.894;2023-03-01T03:05:41;0.30;;;0.30;;
12818;SDS011;6474;53.474;9.894;2023-03-01T03:08:09;0.63;;;0.63;;
12818;SDS011;6474;53.474;9.894;2023-03-01T03:10:38;0.33;;;0.33;;
12818;SDS011;6474;53.474;9.894;2023-03-01T03:13:08;0.30;;;0.30;;
12818;SDS011;6474;53.474;9.894;2023-03-01T03:15:38;0.20;;;0.20;;
12818;SDS011;6474;53.474;9.894;2023-03-01T03:18:09;1.50;;;0.90;;
12818;SDS011;6474;53.474;9.894;2023-03-01T03:20:40;0.30;;;0.30;;
12818;SDS011;6474;53.474;9.894;2023-03-01T03:23:09;0.40;;;0.40;;
12818;SDS011;6474;53.474;9.894;2023-03-01T03:25:37;0.17;;;0.17;;
12818;SDS011;6474;53.474;9.894;2023-03-01T03:28:06;0.50;;;0.50;;
12818;SDS011;6474;53.474;9.894;2023-03-01T03:30:37;0.47;;;0.47;;
12818;SDS011;6474;53.474;9.894;2023-03-01T03:33:08;1.30;;;0.67;;
12818;SDS011;6474;53.474;9.894;2023-03-01T03:35:40;0.30;;;0.30;;
12818;SDS011;6474;53.474;9.894;2023-03-01T03:38:10;0.57;;;0.57;;
12818;SDS011;6474;53.474;9.894;2023-03-01T03:40:43;0.30;;;0.30;;
12818;SDS011;6474;53.474;9.894;2023-03-01T03:43:13;4.13;;;1.07;;
12818;SDS011;6474;53.474;9.894;2023-03-01T03:45:44;0.60;;;0.60;;
12818;SDS011;6474;53.474;9.894;2023-03-01T03:48:13;1.67;;;0.67;;
12818;SDS011;6474;53.474;9.894;2023-03-01T03:50:41;0.70;;;0.70;;
12818;SDS011;6474;53.474;9.894;2023-03-01T03:53:15;1.13;;;0.60;;
12818;SDS011;6474;53.474;9.894;2023-03-01T03:55:44;0.77;;;0.77;;
12818;SDS011;6474;53.474;9.894;2023-03-01T03:58:15;1.13;;;0.90;;
12818;SDS011;6474;53.474;9.894;2023-03-01T04:00:48;0.50;;;0.50;;
12818;SDS011;6474;53.474;9.894;2023-03-01T04:03:18;0.90;;;0.90;;
12818;SDS011;6474;53.474;9.894;2023-03-01T04:05:48;0.97;;;0.60;;
12818;SDS011;6474;53.474;9.894;2023-03-01T04:08:17;1.37;;;0.70;;
12818;SDS011;6474;53.474;9.894;2023-03-01T04:10:46;0.47;;;0.47;;
12818;SDS011;6474;53.474;9.894;2023-03-01T04:13:16;0.40;;;0.40;;
12818;SDS011;6474;53.474;9.894;2023-03-01T04:15:47;0.70;;;0.63;;
12818;SDS011;6474;53.474;9.894;2023-03-01T04:18:16;0.53;;;0.53;;
12818;SDS011;6474;53.474;9.894;2023-03-01T04:20:45;1.50;;;0.53;;
12818;SDS011;6474;53.474;9.894;2023-03-01T04:23:15;0.60;;;0.37;;
12818;SDS011;6474;53.474;9.894;2023-03-01T04:25:47;0.40;;;0.40;;
12818;SDS011;6474;53.474;9.894;2023-03-01T04:28:19;0.67;;;0.67;;
12818;SDS011;6474;53.474;9.894;2023-03-01T04:30:49;0.53;;;0.47;;
12818;SDS011;6474;53.474;9.894;2023-03-01T04:33:18;0.63;;;0.63;;
12818;SDS011;6474;53.474;9.894;2023-03-01T04:35:46;0.40;;;0.40;;
12818;SDS011;6474;53.474;9.894;2023-03-01T04:38:15;0.47;;;0.47;;
12818;SDS011;6474;53.474;9.894;2023-03-01T04:40:43;0.93;;;0.73;;
12818;SDS011;6474;53.474;9.894;2023-03-01T04:43:12;0.47;;;0.47;;
12818;SDS011;6474;53.474;9.894;2023-03-01T04:45:41;0.50;;;0.50;;
12818;SDS011;6474;53.474;9.894;2023-03-01T04:48:10;0.53;;;0.53;;
12818;SDS011;6474;53.474;9.894;2023-03-01T04:50:38;0.40;;;0.40;;
12818;SDS011;6474;53.474;9.894;2023-03-01T04:53:06;0.50;;;0.50;;
12818;SDS011;6474;53.474;9.894;2023-03-01T04:55:35;0.40;;;0.40;;
12818;SDS011;6474;53.474;9.894;2023-03-01T04:58:03;1.00;;;1.00;;
12818;SDS011;6474;53.474;9.894;2023-03-01T05:00:31;0.43;;;0.43;;
12818;SDS011;6474;53.474;9.894;2023-03-01T05:02:59;0.63;;;0.63;;
12818;SDS011;6474;53.474;9.894;2023-03-01T05:05:30;0.20;;;0.20;;
12818;SDS011;6474;53.474;9.894;2023-03-01T05:07:59;4.60;;;0.67;;
12818;SDS011;6474;53.474;9.894;2023-03-01T05:10:29;0.60;;;0.60;;
12818;SDS011;6474;53.474;9.894;2023-03-01T05:12:58;3.17;;;0.50;;
12818;SDS011;6474;53.474;9.894;2023-03-01T05:15:27;0.60;;;0.60;;
12818;SDS011;6474;53.474;9.894;2023-03-01T05:17:57;0.37;;;0.37;;
12818;SDS011;6474;53.474;9.894;2023-03-01T05:20:27;0.53;;;0.53;;
12818;SDS011;6474;53.474;9.894;2023-03-01T05:22:58;0.47;;;0.47;;
12818;SDS011;6474;53.474;9.894;2023-03-01T05:25:32;0.60;;;0.60;;
12818;SDS011;6474;53.474;9.894;2023-03-01T05:28:00;0.77;;;0.77;;
12818;SDS011;6474;53.474;9.894;2023-03-01T05:30:30;0.67;;;0.67;;
12818;SDS011;6474;53.474;9.894;2023-03-01T05:32:59;1.10;;;0.40;;
12818;SDS011;6474;53.474;9.894;2023-03-01T05:35:27;0.30;;;0.30;;
12818;SDS011;6474;53.474;9.894;2023-03-01T05:38:00;0.30;;;0.27;;
12818;SDS011;6474;53.474;9.894;2023-03-01T05:40:28;0.20;;;0.20;;
12818;SDS011;6474;53.474;9.894;2023-03-01T05:42:56;0.50;;;0.50;;
12818;SDS011;6474;53.474;9.894;2023-03-01T05:45:24;1.17;;;0.97;;
12818;SDS011;6474;53.474;9.894;2023-03-01T05:47:54;0.50;;;0.50;;
12818;SDS011;6474;53.474;9.894;2023-03-01T05:50:23;0.23;;;0.23;;
12818;SDS011;6474;53.474;9.894;2023-03-01T05:52:56;0.80;;;0.80;;
12818;SDS011;6474;53.474;9.894;2023-03-01T05:55:27;1.70;;;0.60;;
12818;SDS011;6474;53.474;9.894;2023-03-01T05:57:57;0.50;;;0.50;;
12818;SDS011;6474;53.474;9.894;2023-03-01T06:00:25;0.73;;;0.53;;
12818;SDS011;6474;53.474;9.894;2023-03-01T06:02:54;0.83;;;0.83;;
12818;SDS011;6474;53.474;9.894;2023-03-01T06:05:23;0.50;;;0.50;;
12818;SDS011;6474;53.474;9.894;2023-03-01T06:07:51;0.63;;;0.63;;
12818;SDS011;6474;53.474;9.894;2023-03-01T06:10:20;0.77;;;0.77;;
12818;SDS011;6474;53.474;9.894;2023-03-01T06:12:50;0.57;;;0.57;;
12818;SDS011;6474;53.474;9.894;2023-03-01T06:15:18;1.37;;;1.27;;
12818;SDS011;6474;53.474;9.894;2023-03-01T06:17:47;0.53;;;0.53;;
12818;SDS011;6474;53.474;9.894;2023-03-01T06:20:15;0.60;;;0.60;;
12818;SDS011;6474;53.474;9.894;2023-03-01T06:22:44;0.40;;;0.40;;
12818;SDS011;6474;53.474;9.894;2023-03-01T06:25:14;0.70;;;0.70;;
12818;SDS011;6474;53.474;9.894;2023-03-01T06:27:43;3.67;;;1.30;;
12818;SDS011;6474;53.474;9.894;2023-03-01T06:30:13;0.70;;;0.70;;
12818;SDS011;6474;53.474;9.894;2023-03-01T06:32:44;0.60;;;0.60;;
12818;SDS011;6474;53.474;9.894;2023-03-01T06:35:13;0.67;;;0.67;;
12818;SDS011;6474;53.474;9.894;2023-03-01T06:37:43;0.60;;;0.60;;
12818;SDS011;6474;53.474;9.894;2023-03-01T06:40:12;2.93;;;1.90;;
12818;SDS011;6474;53.474;9.894;2023-03-01T06:42:43;0.90;;;0.90;;
12818;SDS011;6474;53.474;9.894;2023-03-01T06:45:17;1.07;;;1.07;;
12818;SDS011;6474;53.474;9.894;2023-03-01T06:47:46;0.80;;;0.80;;
12818;SDS011;6474;53.474;9.894;2023-03-01T06:50:14;0.87;;;0.87;;
12818;SDS011;6474;53.474;9.894;2023-03-01T06:52:43;2.30;;;1.30;;
12818;SDS011;6474;53.474;9.894;2023-03-01T06:55:11;1.00;;;1.00;;
12818;SDS011;6474;53.474;9.894;2023-03-01T06:57:40;2.40;;;0.60;;
12818;SDS011;6474;53.474;9.894;2023-03-01T07:00:08;0.73;;;0.73;;
12818;SDS011;6474;53.474;9.894;2023-03-01T07:02:38;1.23;;;1.23;;
12818;SDS011;6474;53.474;9.894;2023-03-01T07:05:06;2.40;;;2.13;;
12818;SDS011;6474;53.474;9.894;2023-03-01T07:07:34;3.20;;;2.30;;
12818;SDS011;6474;53.474;9.894;2023-03-01T07:10:03;2.87;;;1.57;;
12818;SDS011;6474;53.474;9.894;2023-03-01T07:12:31;1.97;;;1.80;;
12818;SDS011;6474;53.474;9.894;2023-03-01T07:14:59;2.93;;;2.30;;
12818;SDS011;6474;53.474;9.894;2023-03-01T07:17:27;2.67;;;2.47;;
12818;SDS011;6474;53.474;9.894;2023-03-01T07:19:57;1.67;;;1.53;;
12818;SDS011;6474;53.474;9.894;2023-03-01T07:22:24;1.93;;;1.80;;
12818;SDS011;6474;53.474;9.894;2023-03-01T07:24:52;1.47;;;1.47;;
12818;SDS011;6474;53.474;9.894;2023-03-01T07:27:20;4.10;;;2.90;;
12818;SDS011;6474;53.474;9.894;2023-03-01T07:29:48;4.00;;;1.70;;
12818;SDS011;6474;53.474;9.894;2023-03-01T07:32:16;1.83;;;1.63;;
12818;SDS011;6474;53.474;9.894;2023-03-01T07:34:44;3.13;;;1.60;;
12818;SDS011;6474;53.474;9.894;2023-03-01T07:37:13;3.10;;;1.63;;
12818;SDS011;6474;53.474;9.894;2023-03-01T07:39:41;1.87;;;1.77;;
12818;SDS011;6474;53.474;9.894;2023-03-01T07:42:09;1.07;;;1.00;;
12818;SDS011;6474;53.474;9.894;2023-03-01T07:44:37;3.23;;;1.60;;
12818;SDS011;6474;53.474;9.894;2023-03-01T07:47:05;2.47;;;2.10;;
12818;SDS011;6474;53.474;9.894;2023-03-01T07:49:33;3.17;;;1.67;;
12818;SDS011;6474;53.474;9.894;2023-03-01T07:52:01;1.60;;;1.50;;
12818;SDS011;6474;53.474;9.894;2023-03-01T07:54:30;1.20;;;1.20;;
12818;SDS011;6474;53.474;9.894;2023-03-01T07:56:58;0.87;;;0.87;;
12818;SDS011;6474;53.474;9.894;2023-03-01T07:59:25;2.77;;;1.47;;
12818;SDS011;6474;53.474;9.894;2023-03-01T08:01:56;3.43;;;1.53;;
12818;SDS011;6474;53.474;9.894;2023-03-01T08:04:24;1.10;;;1.10;;
12818;SDS011;6474;53.474;9.894;2023-03-01T08:06:52;1.90;;;1.80;;
12818;SDS011;6474;53.474;9.894;2023-03-01T08:09:20;0.90;;;0.90;;
12818;SDS011;6474;53.474;9.894;2023-03-01T08:11:50;1.53;;;1.53;;
12818;SDS011;6474;53.474;9.894;2023-03-01T08:14:18;1.07;;;1.07;;
12818;SDS011;6474;53.474;9.894;2023-03-01T08:16:48;0.97;;;0.97;;
12818;SDS011;6474;53.474;9.894;2023-03-01T08:19:16;1.40;;;1.30;;
12818;SDS011;6474;53.474;9.894;2023-03-01T08:21:44;1.10;;;1.03;;
12818;SDS011;6474;53.474;9.894;2023-03-01T08:24:12;1.50;;;0.90;;
12818;SDS011;6474;53.474;9.894;2023-03-01T08:26:40;2.83;;;1.27;;
12818;SDS011;6474;53.474;9.894;2023-03-01T08:29:09;1.73;;;1.60;;
12818;SDS011;6474;53.474;9.894;2023-03-01T08:31:38;1.23;;;1.23;;
12818;SDS011;6474;53.474;9.894;2023-03-01T08:34:07;1.13;;;1.10;;
12818;SDS011;6474;53.474;9.894;2023-03-01T08:36:39;0.93;;;0.93;;
12818;SDS011;6474;53.474;9.894;2023-03-01T08:39:08;1.50;;;1.50;;
12818;SDS011;6474;53.474;9.894;2023-03-01T08:41:37;1.20;;;1.10;;
12818;SDS011;6474;53.474;9.894;2023-03-01T08:44:05;2.23;;;1.73;;
12818;SDS011;6474;53.474;9.894;2023-03-01T08:46:36;3.13;;;1.80;;
12818;SDS011;6474;53.474;9.894;2023-03-01T08:49:05;1.40;;;1.40;;
12818;SDS011;6474;53.474;9.894;2023-03-01T08:51:34;1.47;;;1.20;;
12818;SDS011;6474;53.474;9.894;2023-03-01T08:54:03;1.67;;;1.57;;
12818;SDS011;6474;53.474;9.894;2023-03-01T08:56:33;1.20;;;1.20;;
12818;SDS011;6474;53.474;9.894;2023-03-01T08:59:01;1.13;;;1.13;;
12818;SDS011;6474;53.474;9.894;2023-03-01T09:01:29;1.20;;;1.20;;
12818;SDS011;6474;53.474;9.894;2023-03-01T09:03:58;1.60;;;1.50;;
12818;SDS011;6474;53.474;9.894;2023-03-01T09:06:26;3.13;;;1.40;;
12818;SDS011;6474;53.474;9.894;2023-03-01T09:08:57;1.50;;;1.50;;
12818;SDS011;6474;53.474;9.894;2023-03-01T09:11:25;1.53;;;1.53;;
12818;SDS011;6474;53.474;9.894;2023-03-01T09:13:55;1.63;;;1.57;;
12818;SDS011;6474;53.474;9.894;2023-03-01T09:16:23;2.77;;;1.87;;
12818;SDS011;6474;53.474;9.894;2023-03-01T09:18:51;1.47;;;1.37;;
12818;SDS011;6474;53.474;9.894;2023-03-01T09:21:22;1.40;;;1.40;;
12818;SDS011;6474;53.474;9.894;2023-03-01T09:24:05;1.90;;;1.80;;
12818;SDS011;6474;53.474;9.894;2023-03-01T09:26:35;2.43;;;2.17;;
12818;SDS011;6474;53.474;9.894;2023-03-01T09:29:03;2.93;;;1.97;;
12818;SDS011;6474;53.474;9.894;2023-03-01T09:31:31;10.27;;;2.23;;
12818;SDS011;6474;53.474;9.894;2023-03-01T09:33:59;3.27;;;2.50;;
12818;SDS011;6474;53.474;9.894;2023-03-01T09:36:28;2.47;;;2.27;;
12818;SDS011;6474;53.474;9.894;2023-03-01T09:38:57;1.30;;;1.23;;
12818;SDS011;6474;53.474;9.894;2023-03-01T09:41:38;3.20;;;2.90;;
12818;SDS011;6474;53.474;9.894;2023-03-01T09:44:13;2.07;;;1.77;;
12818;SDS011;6474;53.474;9.894;2023-03-01T09:46:48;1.90;;;1.87;;
12818;SDS011;6474;53.474;9.894;2023-03-01T09:49:17;2.33;;;2.23;;
12818;SDS011;6474;53.474;9.894;2023-03-01T09:51:52;4.80;;;2.60;;
12818;SDS011;6474;53.474;9.894;2023-03-01T09:54:22;2.93;;;2.73;;
12818;SDS011;6474;53.474;9.894;2023-03-01T09:56:53;1.53;;;1.53;;
12818;SDS011;6474;53.474;9.894;2023-03-01T09:59:33;2.33;;;2.23;;
12818;SDS011;6474;53.474;9.894;2023-03-01T10:02:14;2.10;;;2.00;;
12818;SDS011;6474;53.474;9.894;2023-03-01T10:04:52;1.97;;;1.87;;
12818;SDS011;6474;53.474;9.894;2023-03-01T10:07:29;2.23;;;2.03;;
12818;SDS011;6474;53.474;9.894;2023-03-01T10:10:05;2.43;;;2.33;;
12818;SDS011;6474;53.474;9.894;2023-03-01T10:12:34;1.83;;;1.73;;
12818;SDS011;6474;53.474;9.894;2023-03-01T10:15:06;2.10;;;2.00;;
12818;SDS011;6474;53.474;9.894;2023-03-01T10:17:39;2.33;;;2.23;;
12818;SDS011;6474;53.474;9.894;2023-03-01T10:20:16;2.77;;;2.57;;
12818;SDS011;6474;53.474;9.894;2023-03-01T10:22:47;2.03;;;1.93;;
12818;SDS011;6474;53.474;9.894;2023-03-01T10:25:23;2.47;;;2.27;;
12818;SDS011;6474;53.474;9.894;2023-03-01T10:28:10;4.90;;;2.70;;
12818;SDS011;6474;53.474;9.894;2023-03-01T10:30:44;6.23;;;2.50;;
12818;SDS011;6474;53.474;9.894;2023-03-01T10:33:14;2.70;;;2.50;;
12818;SDS011;6474;53.474;9.894;2023-03-01T10:35:45;3.33;;;2.57;;
12818;SDS011;6474;53.474;9.894;2023-03-01T10:38:16;2.50;;;2.27;;
12818;SDS011;6474;53.474;9.894;2023-03-01T10:40:50;2.40;;;2.07;;
12818;SDS011;6474;53.474;9.894;2023-03-01T10:43:20;2.30;;;2.20;;
12818;SDS011;6474;53.474;9.894;2023-03-01T10:45:49;4.13;;;2.57;;
12818;SDS011;6474;53.474;9.894;2023-03-01T10:48:18;5.67;;;2.47;;
12818;SDS011;6474;53.474;9.894;2023-03-01T10:50:50;1.90;;;1.80;;
12818;SDS011;6474;53.474;9.894;2023-03-01T10:53:34;2.30;;;2.13;;
12818;SDS011;6474;53.474;9.894;2023-03-01T10:56:04;3.60;;;3.30;;
12818;SDS011;6474;53.474;9.894;2023-03-01T10:58:34;2.17;;;2.07;;
12818;SDS011;6474;53.474;9.894;2023-03-01T11:01:03;2.97;;;2.77;;
12818;SDS011;6474;53.474;9.894;2023-03-01T11:03:33;3.53;;;2.73;;
12818;SDS011;6474;53.474;9.894;2023-03-01T11:06:05;2.43;;;2.23;;
12818;SDS011;6474;53.474;9.894;2023-03-01T11:08:48;2.17;;;2.07;;
12818;SDS011;6474;53.474;9.894;2023-03-01T11:11:22;2.97;;;2.67;;
12818;SDS011;6474;53.474;9.894;2023-03-01T11:13:54;2.23;;;2.13;;
12818;SDS011;6474;53.474;9.894;2023-03-01T11:16:25;2.30;;;2.10;;
12818;SDS011;6474;53.474;9.894;2023-03-01T11:18:56;2.23;;;2.00;;
12818;SDS011;6474;53.474;9.894;2023-03-01T11:21:25;2.13;;;2.03;;
12818;SDS011;6474;53.474;9.894;2023-03-01T11:23:58;2.20;;;2.00;;
12818;SDS011;6474;53.474;9.894;2023-03-01T11:26:28;3.53;;;2.07;;
12818;SDS011;6474;53.474;9.894;2023-03-01T11:29:00;3.63;;;2.40;;
12818;SDS011;6474;53.474;9.894;2023-03-01T11:31:31;1.73;;;1.63;;
12818;SDS011;6474;53.474;9.894;2023-03-01T11:34:02;3.23;;;2.23;;
12818;SDS011;6474;53.474;9.894;2023-03-01T11:36:38;1.73;;;1.63;;
12818;SDS011;6474;53.474;9.894;2023-03-01T11:39:15;1.13;;;1.13;;
12818;SDS011;6474;53.474;9.894;2023-03-01T11:41:52;4.43;;;1.97;;
12818;SDS011;6474;53.474;9.894;2023-03-01T11:44:44;2.20;;;2.10;;
12818;SDS011;6474;53.474;9.894;2023-03-01T11:47:30;1.37;;;1.27;;
12818;SDS011;6474;53.474;9.894;2023-03-01T11:50:13;1.60;;;1.60;;
12818;SDS011;6474;53.474;9.894;2023-03-01T11:52:48;1.40;;;1.40;;
12818;SDS011;6474;53.474;9.894;2023-03-01T11:55:33;1.90;;;1.50;;
12818;SDS011;6474;53.474;9.894;2023-03-01T11:58:17;2.17;;;1.60;;
12818;SDS011;6474;53.474;9.894;2023-03-01T12:00:59;1.80;;;1.70;;
12818;SDS011;6474;53.474;9.894;2023-03-01T12:03:47;2.23;;;2.07;;
12818;SDS011;6474;53.474;9.894;2023-03-01T12:06:50;1.33;;;1.33;;
12818;SDS011;6474;53.474;9.894;2023-03-01T12:09:31;1.40;;;1.30;;
12818;SDS011;6474;53.474;9.894;2023-03-01T12:12:18;1.83;;;1.43;;
12818;SDS011;6474;53.474;9.894;2023-03-01T12:14:56;1.47;;;1.37;;
12818;SDS011;6474;53.474;9.894;2023-03-01T12:17:51;1.77;;;1.67;;
12818;SDS011;6474;53.474;9.894;2023-03-01T12:20:36;1.70;;;1.70;;
12818;SDS011;6474;53.474;9.894;2023-03-01T12:23:27;1.87;;;1.77;;
12818;SDS011;6474;53.474;9.894;2023-03-01T12:26:13;1.83;;;1.73;;
12818;SDS011;6474;53.474;9.894;2023-03-01T12:28:54;1.50;;;1.47;;
12818;SDS011;6474;53.474;9.894;2023-03-01T12:31:38;1.03;;;1.03;;
12818;SDS011;6474;53.474;9.894;2023-03-01T12:34:29;3.10;;;1.60;;
12818;SDS011;6474;53.474;9.894;2023-03-01T12:37:11;1.97;;;1.87;;
12818;SDS011;6474;53.474;9.894;2023-03-01T12:39:51;1.77;;;1.67;;
12818;SDS011;6474;53.474;9.894;2023-03-01T12:42:31;1.43;;;1.33;;
12818;SDS011;6474;53.474;9.894;2023-03-01T12:45:16;1.33;;;1.30;;
12818;SDS011;6474;53.474;9.894;2023-03-01T12:48:03;2.53;;;1.77;;
12818;SDS011;6474;53.474;9.894;2023-03-01T12:50:41;1.67;;;1.57;;
12818;SDS011;6474;53.474;9.894;2023-03-01T12:53:16;3.80;;;2.23;;
12818;SDS011;6474;53.474;9.894;2023-03-01T12:55:49;1.90;;;1.90;;
12818;SDS011;6474;53.474;9.894;2023-03-01T12:58:21;2.20;;;1.40;;
12818;SDS011;6474;53.474;9.894;2023-03-01T13:01:11;1.97;;;1.87;;
12818;SDS011;6474;53.474;9.894;2023-03-01T13:03:59;7.00;;;1.40;;
12818;SDS011;6474;53.474;9.894;2023-03-01T13:06:39;2.00;;;1.90;;
12818;SDS011;6474;53.474;9.894;2023-03-01T13:09:14;1.73;;;1.70;;
12818;SDS011;6474;53.474;9.894;2023-03-01T13:11:50;1.87;;;1.60;;
12818;SDS011;6474;53.474;9.894;2023-03-01T13:14:37;1.93;;;1.83;;
12818;SDS011;6474;53.474;9.894;2023-03-01T13:17:33;1.80;;;1.70;;
12818;SDS011;6474;53.474;9.894;2023-03-01T13:20:12;1.77;;;1.53;;
12818;SDS011;6474;53.474;9.894;2023-03-01T13:22:42;1.83;;;1.73;;
12818;SDS011;6474;53.474;9.894;2023-03-01T13:25:20;2.37;;;1.70;;
12818;SDS011;6474;53.474;9.894;2023-03-01T13:30:57;3.30;;;1.60;;
12818;SDS011;6474;53.474;9.894;2023-03-01T13:33:43;2.00;;;1.90;;
12818;SDS011;6474;53.474;9.894;2023-03-01T13:39:27;1.40;;;1.40;;
12818;SDS011;6474;53.474;9.894;2023-03-01T13:41:58;1.57;;;1.47;;
12818;SDS011;6474;53.474;9.894;2023-03-01T13:44:29;3.23;;;1.90;;
12818;SDS011;6474;53.474;9.894;2023-03-01T13:47:01;2.53;;;1.77;;
12818;SDS011;6474;53.474;9.894;2023-03-01T13:49:43;2.97;;;1.90;;
12818;SDS011;6474;53.474;9.894;2023-03-01T13:52:28;3.80;;;2.60;;
12818;SDS011;6474;53.474;9.894;2023-03-01T13:55:03;2.97;;;2.67;;
12818;SDS011;6474;53.474;9.894;2023-03-01T13:57:34;4.37;;;2.37;;
12818;SDS011;6474;53.474;9.894;2023-03-01T14:00:05;2.73;;;2.27;;
12818;SDS011;6474;53.474;9.894;2023-03-01T14:02:35;1.47;;;1.47;;
12818;SDS011;6474;53.474;9.894;2023-03-01T14:05:05;2.10;;;2.00;;
12818;SDS011;6474;53.474;9.894;2023-03-01T14:07:37;3.03;;;2.07;;
12818;SDS011;6474;53.474;9.894;2023-03-01T14:10:07;1.80;;;1.70;;
12818;SDS011;6474;53.474;9.894;2023-03-01T14:12:40;2.70;;;2.03;;
12818;SDS011;6474;53.474;9.894;2023-03-01T14:15:17;2.50;;;2.40;;
12818;SDS011;6474;53.474;9.894;2023-03-01T14:17:52;2.67;;;2.40;;
12818;SDS011;6474;53.474;9.894;2023-03-01T14:20:27;1.87;;;1.77;;
12818;SDS011;6474;53.474;9.894;2023-03-01T14:22:58;2.70;;;2.50;;
12818;SDS011;6474;53.474;9.894;2023-03-01T14:25:29;2.43;;;2.23;;
12818;SDS011;6474;53.474;9.894;2023-03-01T14:28:00;1.93;;;1.83;;
12818;SDS011;6474;53.474;9.894;2023-03-01T14:30:33;2.93;;;2.73;;
12818;SDS011;6474;53.474;9.894;2023-03-01T14:33:16;1.60;;;1.57;;
12818;SDS011;6474;53.474;9.894;2023-03-01T14:35:58;2.37;;;2.23;;
12818;SDS011;6474;53.474;9.894;2023-03-01T14:38:29;1.87;;;1.77;;
12818;SDS011;6474;53.474;9.894;2023-03-01T14:41:01;1.87;;;1.77;;
12818;SDS011;6474;53.474;9.894;2023-03-01T14:43:32;1.70;;;1.60;;
12818;SDS011;6474;53.474;9.894;2023-03-01T14:46:00;1.67;;;1.57;;
12818;SDS011;6474;53.474;9.894;2023-03-01T14:48:29;1.43;;;1.03;;
12818;SDS011;6474;53.474;9.894;2023-03-01T14:50:59;4.27;;;2.40;;
12818;SDS011;6474;53.474;9.894;2023-03-01T14:53:28;5.03;;;2.23;;
12818;SDS011;6474;53.474;9.894;2023-03-01T14:56:14;2.17;;;1.93;;
12818;SDS011;6474;53.474;9.894;2023-03-01T14:58:43;1.33;;;1.33;;
12818;SDS011;6474;53.474;9.894;2023-03-01T15:01:14;1.50;;;1.37;;
12818;SDS011;6474;53.474;9.894;2023-03-01T15:03:44;1.80;;;1.70;;
12818;SDS011;6474;53.474;9.894;2023-03-01T15:06:16;1.53;;;1.43;;
12818;SDS011;6474;53.474;9.894;2023-03-01T15:08:46;1.57;;;1.47;;
12818;SDS011;6474;53.474;9.894;2023-03-01T15:11:19;2.20;;;2.00;;
12818;SDS011;6474;53.474;9.894;2023-03-01T15:13:50;1.10;;;1.10;;
12818;SDS011;6474;53.474;9.894;2023-03-01T15:16:19;4.07;;;2.73;;
12818;SDS011;6474;53.474;9.894;2023-03-01T15:18:50;4.00;;;2.17;;
12818;SDS011;6474;53.474;9.894;2023-03-01T15:21:23;3.63;;;2.20;;
12818;SDS011;6474;53.474;9.894;2023-03-01T15:23:54;1.57;;;1.57;;
12818;SDS011;6474;53.474;9.894;2023-03-01T15:26:26;2.87;;;1.50;;
12818;SDS011;6474;53.474;9.894;2023-03-01T15:28:58;1.40;;;1.30;;
12818;SDS011;6474;53.474;9.894;2023-03-01T15:31:27;0.90;;;0.90;;
12818;SDS011;6474;53.474;9.894;2023-03-01T15:34:07;1.33;;;1.20;;